Aérodrome :
LOGIN :

S'inscrire | Disclaimer

   EN    FR    IT 

 










Légende :    VFR   VFR Marginal   IFR   IFR Intensif   IFR Très Intensif
Visi : 
Plafond : 
>= 8 km
>= 3000ft
5 à 8 km
1000 à 3000 ft
1500m à 5 km
500 à 1000 ft
800 à 1500m
200 à 500 ft
< 800m
< 200 ft
Symboles :   Orages  Brouillard  Fortes neiges  Fortes précipitations  Vent > 20 kt
SIGMETs :   Divers  Orages  Givrage  Turbulence  Onde Orograph.  Cendres Volcan.






- Altitude de l'aérodrome : 2001 ft
- Code IATA : MAD


LEMD - Madrid

DERNIER METAR :
  • 081200Z 27002KT 9999 FEW025 SCT035 12/06 Q1014 NOSIG

METARs EXPIRÉS :
  • 081130Z 00000KT 9999 FEW025 SCT045 12/06 Q1015 NOSIG
  • 081100Z 29001KT 9999 FEW015 SCT045 11/06 Q1015 NOSIG
  • 081030Z VRB02KT 9999 SCT045 10/06 Q1015 NOSIG
  • 081000Z VRB01KT 9999 BKN035 10/06 Q1015 NOSIG
  • 080930Z VRB01KT 9999 BKN035 09/06 Q1015 NOSIG

TAF TAF LEMD
Valide du 08 à 12h jusqu'au 09 à 18h UTC


081100Z 0812/0918 VRB04KT 9999 BKN030 TX14/0915Z TN03/0906Z
PROB40
TEMPO 0812/0820 01010KT 3000 SHRA BKN025TCU
PROB30
TEMPO 0813/0819 VRB15G25KT 3000 TSRA SHRA SCT025CB
BECMG 0818/0819 02010KT



MET'MAP, la Météo Aéronautique d'un coup d'oeil ! - Copyright ORBIFLY Décembre 2007 - Disclaimer

ORBIFLY MET'MAP TEAM :

Programmation & Développement : Alexandra Zaïnal
Sur une idée originale de : Baudouin d'Aumeries
Assistance à la programmation : Marc-Olivier Méhu
Soutien technique & logistique : Manuel Goepfert

Contact : metmap@orbifly.com




SOURCES & CREDITS :

   NOAA